sensor_id;sensor_type;location;lat;lon;timestamp;temperature;humidity
23579;DHT22;11967;50.852;4.400;2024-03-07T00:02:12;12.70;99.90
23579;DHT22;11967;50.852;4.400;2024-03-07T00:04:37;12.70;99.90
23579;DHT22;11967;50.852;4.400;2024-03-07T00:07:03;12.60;99.90
23579;DHT22;11967;50.852;4.400;2024-03-07T00:09:32;12.50;99.90
23579;DHT22;11967;50.852;4.400;2024-03-07T00:11:58;12.50;99.90
23579;DHT22;11967;50.852;4.400;2024-03-07T00:14:24;12.40;99.90
23579;DHT22;11967;50.852;4.400;2024-03-07T00:16:56;12.50;99.90
23579;DHT22;11967;50.852;4.400;2024-03-07T00:19:22;12.50;99.90
23579;DHT22;11967;50.852;4.400;2024-03-07T00:21:51;12.50;99.90
23579;DHT22;11967;50.852;4.400;2024-03-07T00:24:17;12.50;99.90
23579;DHT22;11967;50.852;4.400;2024-03-07T00:26:42;12.40;99.90
23579;DHT22;11967;50.852;4.400;2024-03-07T00:29:08;12.40;99.90
23579;DHT22;11967;50.852;4.400;2024-03-07T00:31:34;12.40;99.90
23579;DHT22;11967;50.852;4.400;2024-03-07T00:33:59;12.40;99.90
23579;DHT22;11967;50.852;4.400;2024-03-07T00:36:25;12.30;99.90
23579;DHT22;11967;50.852;4.400;2024-03-07T00:38:51;12.10;99.90
23579;DHT22;11967;50.852;4.400;2024-03-07T00:41:17;12.20;99.90
23579;DHT22;11967;50.852;4.400;2024-03-07T00:43:43;12.20;99.90
23579;DHT22;11967;50.852;4.400;2024-03-07T00:46:09;12.10;99.90
23579;DHT22;11967;50.852;4.400;2024-03-07T00:48:39;12.10;99.90
23579;DHT22;11967;50.852;4.400;2024-03-07T00:51:05;12.10;99.90
23579;DHT22;11967;50.852;4.400;2024-03-07T00:53:30;12.20;99.90
23579;DHT22;11967;50.852;4.400;2024-03-07T00:55:57;12.10;99.90
23579;DHT22;11967;50.852;4.400;2024-03-07T00:58:22;12.00;99.90
23579;DHT22;11967;50.852;4.400;2024-03-07T01:00:48;12.00;99.90
23579;DHT22;11967;50.852;4.400;2024-03-07T01:03:15;12.00;99.90
23579;DHT22;11967;50.852;4.400;2024-03-07T01:05:43;12.00;99.90
23579;DHT22;11967;50.852;4.400;2024-03-07T01:08:09;12.00;99.90
23579;DHT22;11967;50.852;4.400;2024-03-07T01:10:35;12.00;99.90
23579;DHT22;11967;50.852;4.400;2024-03-07T01:13:00;12.00;99.90
23579;DHT22;11967;50.852;4.400;2024-03-07T01:15:33;12.00;99.90
23579;DHT22;11967;50.852;4.400;2024-03-07T01:17:59;12.00;99.90
23579;DHT22;11967;50.852;4.400;2024-03-07T01:20:24;11.90;99.90
23579;DHT22;11967;50.852;4.400;2024-03-07T01:22:51;11.80;99.90
23579;DHT22;11967;50.852;4.400;2024-03-07T01:25:17;11.90;99.90
23579;DHT22;11967;50.852;4.400;2024-03-07T01:27:43;11.90;99.90
23579;DHT22;11967;50.852;4.400;2024-03-07T01:30:10;11.80;99.90
23579;DHT22;11967;50.852;4.400;2024-03-07T01:32:36;11.80;99.90
23579;DHT22;11967;50.852;4.400;2024-03-07T01:35:01;11.90;99.90
23579;DHT22;11967;50.852;4.400;2024-03-07T01:37:27;11.80;99.90
23579;DHT22;11967;50.852;4.400;2024-03-07T01:39:54;11.80;99.90
23579;DHT22;11967;50.852;4.400;2024-03-07T01:42:20;11.80;99.90
23579;DHT22;11967;50.852;4.400;2024-03-07T01:44:46;11.80;99.90
23579;DHT22;11967;50.852;4.400;2024-03-07T01:47:13;11.80;99.90
23579;DHT22;11967;50.852;4.400;2024-03-07T01:49:41;11.80;99.90
23579;DHT22;11967;50.852;4.400;2024-03-07T01:52:08;11.80;99.90
23579;DHT22;11967;50.852;4.400;2024-03-07T01:54:35;11.80;99.90
23579;DHT22;11967;50.852;4.400;2024-03-07T01:57:02;11.90;99.90
23579;DHT22;11967;50.852;4.400;2024-03-07T01:59:28;11.90;99.90
23579;DHT22;11967;50.852;4.400;2024-03-07T02:01:57;11.90;99.90
23579;DHT22;11967;50.852;4.400;2024-03-07T02:04:23;11.90;99.90
23579;DHT22;11967;50.852;4.400;2024-03-07T02:06:50;12.00;99.90
23579;DHT22;11967;50.852;4.400;2024-03-07T02:09:15;11.90;99.90
23579;DHT22;11967;50.852;4.400;2024-03-07T02:11:42;11.80;99.90
23579;DHT22;11967;50.852;4.400;2024-03-07T02:14:08;11.70;99.90
23579;DHT22;11967;50.852;4.400;2024-03-07T02:16:34;11.70;99.90
23579;DHT22;11967;50.852;4.400;2024-03-07T02:19:00;11.70;99.90
23579;DHT22;11967;50.852;4.400;2024-03-07T02:21:26;11.70;99.90
23579;DHT22;11967;50.852;4.400;2024-03-07T02:23:52;11.70;99.90
23579;DHT22;11967;50.852;4.400;2024-03-07T02:26:18;11.70;99.90
23579;DHT22;11967;50.852;4.400;2024-03-07T02:28:44;11.70;99.90
23579;DHT22;11967;50.852;4.400;2024-03-07T02:31:09;11.70;99.90
23579;DHT22;11967;50.852;4.400;2024-03-07T02:33:35;11.60;99.90
23579;DHT22;11967;50.852;4.400;2024-03-07T02:36:01;11.60;99.90
23579;DHT22;11967;50.852;4.400;2024-03-07T02:38:26;11.60;99.90
23579;DHT22;11967;50.852;4.400;2024-03-07T02:40:53;11.60;99.90
23579;DHT22;11967;50.852;4.400;2024-03-07T02:43:18;11.60;99.90
23579;DHT22;11967;50.852;4.400;2024-03-07T02:45:45;11.50;99.90
23579;DHT22;11967;50.852;4.400;2024-03-07T02:48:11;11.50;99.90
23579;DHT22;11967;50.852;4.400;2024-03-07T02:50:36;11.50;99.90
23579;DHT22;11967;50.852;4.400;2024-03-07T02:53:05;11.50;99.90
23579;DHT22;11967;50.852;4.400;2024-03-07T02:55:31;11.40;99.90
23579;DHT22;11967;50.852;4.400;2024-03-07T02:57:57;11.40;99.90
23579;DHT22;11967;50.852;4.400;2024-03-07T03:00:27;11.40;99.90
23579;DHT22;11967;50.852;4.400;2024-03-07T03:02:55;11.40;99.90
23579;DHT22;11967;50.852;4.400;2024-03-07T03:05:21;11.40;99.90
23579;DHT22;11967;50.852;4.400;2024-03-07T03:07:48;11.50;99.90
23579;DHT22;11967;50.852;4.400;2024-03-07T03:10:24;11.40;99.90
23579;DHT22;11967;50.852;4.400;2024-03-07T03:12:55;11.30;99.90
23579;DHT22;11967;50.852;4.400;2024-03-07T03:15:23;11.30;99.90
23579;DHT22;11967;50.852;4.400;2024-03-07T03:17:49;11.40;99.90
23579;DHT22;11967;50.852;4.400;2024-03-07T03:20:14;11.40;99.90
23579;DHT22;11967;50.852;4.400;2024-03-07T03:22:53;11.30;99.90
23579;DHT22;11967;50.852;4.400;2024-03-07T03:25:19;11.20;99.90
23579;DHT22;11967;50.852;4.400;2024-03-07T03:27:49;11.30;99.90
23579;DHT22;11967;50.852;4.400;2024-03-07T03:30:16;11.20;99.90
23579;DHT22;11967;50.852;4.400;2024-03-07T03:32:45;11.30;99.90
23579;DHT22;11967;50.852;4.400;2024-03-07T03:35:11;11.20;99.90
23579;DHT22;11967;50.852;4.400;2024-03-07T03:37:47;11.10;99.90
23579;DHT22;11967;50.852;4.400;2024-03-07T03:40:13;11.10;99.90
23579;DHT22;11967;50.852;4.400;2024-03-07T03:42:40;11.00;99.90
23579;DHT22;11967;50.852;4.400;2024-03-07T03:45:07;11.10;99.90
23579;DHT22;11967;50.852;4.400;2024-03-07T03:47:37;11.10;99.90
23579;DHT22;11967;50.852;4.400;2024-03-07T03:50:06;11.10;99.90
23579;DHT22;11967;50.852;4.400;2024-03-07T03:52:32;11.10;99.90
23579;DHT22;11967;50.852;4.400;2024-03-07T03:54:58;11.10;99.90
23579;DHT22;11967;50.852;4.400;2024-03-07T03:57:28;11.10;99.90
23579;DHT22;11967;50.852;4.400;2024-03-07T03:59:55;11.00;99.90
23579;DHT22;11967;50.852;4.400;2024-03-07T04:02:22;11.00;99.90
23579;DHT22;11967;50.852;4.400;2024-03-07T04:04:48;10.90;99.90
23579;DHT22;11967;50.852;4.400;2024-03-07T04:07:14;10.90;99.90
23579;DHT22;11967;50.852;4.400;2024-03-07T04:09:42;10.90;99.90
23579;DHT22;11967;50.852;4.400;2024-03-07T04:12:09;10.80;99.90
23579;DHT22;11967;50.852;4.400;2024-03-07T04:14:40;11.00;99.90
23579;DHT22;11967;50.852;4.400;2024-03-07T04:17:10;10.90;99.90
23579;DHT22;11967;50.852;4.400;2024-03-07T04:19:39;10.80;99.90
23579;DHT22;11967;50.852;4.400;2024-03-07T04:22:05;10.80;99.90
23579;DHT22;11967;50.852;4.400;2024-03-07T04:24:31;10.80;99.90
23579;DHT22;11967;50.852;4.400;2024-03-07T04:27:00;10.80;99.90
23579;DHT22;11967;50.852;4.400;2024-03-07T04:29:27;10.80;99.90
23579;DHT22;11967;50.852;4.400;2024-03-07T04:31:57;10.80;99.90
23579;DHT22;11967;50.852;4.400;2024-03-07T04:34:23;10.90;99.90
23579;DHT22;11967;50.852;4.400;2024-03-07T04:36:49;11.00;99.90
23579;DHT22;11967;50.852;4.400;2024-03-07T04:39:14;11.00;99.90
23579;DHT22;11967;50.852;4.400;2024-03-07T04:42:03;10.90;99.90
23579;DHT22;11967;50.852;4.400;2024-03-07T04:44:33;10.90;99.90
23579;DHT22;11967;50.852;4.400;2024-03-07T04:47:01;11.00;99.90
23579;DHT22;11967;50.852;4.400;2024-03-07T04:49:29;10.90;99.90
23579;DHT22;11967;50.852;4.400;2024-03-07T04:51:58;10.90;99.90
23579;DHT22;11967;50.852;4.400;2024-03-07T04:54:24;10.80;99.90
23579;DHT22;11967;50.852;4.400;2024-03-07T04:56:51;10.80;99.90
23579;DHT22;11967;50.852;4.400;2024-03-07T04:59:19;10.80;99.90
23579;DHT22;11967;50.852;4.400;2024-03-07T05:01:46;10.70;99.90
23579;DHT22;11967;50.852;4.400;2024-03-07T05:04:13;10.70;99.90
23579;DHT22;11967;50.852;4.400;2024-03-07T05:06:39;10.80;99.90
23579;DHT22;11967;50.852;4.400;2024-03-07T05:09:07;10.80;99.90
23579;DHT22;11967;50.852;4.400;2024-03-07T05:11:34;10.70;99.90
23579;DHT22;11967;50.852;4.400;2024-03-07T05:14:00;10.70;99.90
23579;DHT22;11967;50.852;4.400;2024-03-07T05:16:27;10.70;99.90
23579;DHT22;11967;50.852;4.400;2024-03-07T05:18:53;10.60;99.90
23579;DHT22;11967;50.852;4.400;2024-03-07T05:21:19;10.70;99.90
23579;DHT22;11967;50.852;4.400;2024-03-07T05:24:06;10.60;99.90
23579;DHT22;11967;50.852;4.400;2024-03-07T05:26:34;10.70;99.90
23579;DHT22;11967;50.852;4.400;2024-03-07T05:29:03;10.60;99.90
23579;DHT22;11967;50.852;4.400;2024-03-07T05:31:38;10.40;99.90
23579;DHT22;11967;50.852;4.400;2024-03-07T05:34:04;10.40;99.90
23579;DHT22;11967;50.852;4.400;2024-03-07T05:36:34;10.40;99.90
23579;DHT22;11967;50.852;4.400;2024-03-07T05:39:00;10.40;99.90
23579;DHT22;11967;50.852;4.400;2024-03-07T05:41:28;10.40;99.90
23579;DHT22;11967;50.852;4.400;2024-03-07T05:43:55;10.40;99.90
23579;DHT22;11967;50.852;4.400;2024-03-07T05:46:22;10.40;99.90
23579;DHT22;11967;50.852;4.400;2024-03-07T05:48:50;10.40;99.90
23579;DHT22;11967;50.852;4.400;2024-03-07T05:51:18;10.40;99.90
23579;DHT22;11967;50.852;4.400;2024-03-07T05:53:44;10.50;99.90
23579;DHT22;11967;50.852;4.400;2024-03-07T05:56:10;10.40;99.90
23579;DHT22;11967;50.852;4.400;2024-03-07T05:58:35;10.50;99.90
23579;DHT22;11967;50.852;4.400;2024-03-07T06:01:01;10.40;99.90
23579;DHT22;11967;50.852;4.400;2024-03-07T06:03:27;10.40;99.90
23579;DHT22;11967;50.852;4.400;2024-03-07T06:05:52;10.40;99.90
23579;DHT22;11967;50.852;4.400;2024-03-07T06:08:19;10.40;99.90
23579;DHT22;11967;50.852;4.400;2024-03-07T06:10:47;10.40;99.90
23579;DHT22;11967;50.852;4.400;2024-03-07T06:13:15;10.40;99.90
23579;DHT22;11967;50.852;4.400;2024-03-07T06:15:46;10.40;99.90
23579;DHT22;11967;50.852;4.400;2024-03-07T06:18:12;10.50;99.90
23579;DHT22;11967;50.852;4.400;2024-03-07T06:20:41;10.40;99.90
23579;DHT22;11967;50.852;4.400;2024-03-07T06:23:07;10.50;99.90
23579;DHT22;11967;50.852;4.400;2024-03-07T06:25:34;10.60;99.90
23579;DHT22;11967;50.852;4.400;2024-03-07T06:28:13;10.60;99.90
23579;DHT22;11967;50.852;4.400;2024-03-07T06:30:46;10.50;99.90
23579;DHT22;11967;50.852;4.400;2024-03-07T06:33:13;10.50;99.90
23579;DHT22;11967;50.852;4.400;2024-03-07T06:35:40;10.50;99.90
23579;DHT22;11967;50.852;4.400;2024-03-07T06:38:07;10.50;99.90
23579;DHT22;11967;50.852;4.400;2024-03-07T06:40:33;10.50;99.90
23579;DHT22;11967;50.852;4.400;2024-03-07T06:43:01;10.50;99.90
23579;DHT22;11967;50.852;4.400;2024-03-07T06:45:32;10.40;99.90
23579;DHT22;11967;50.852;4.400;2024-03-07T06:48:01;10.40;99.90
23579;DHT22;11967;50.852;4.400;2024-03-07T06:50:28;10.40;99.90
23579;DHT22;11967;50.852;4.400;2024-03-07T06:52:54;10.40;99.90
23579;DHT22;11967;50.852;4.400;2024-03-07T06:55:21;10.40;99.90
23579;DHT22;11967;50.852;4.400;2024-03-07T06:57:47;10.40;99.90
23579;DHT22;11967;50.852;4.400;2024-03-07T07:00:13;10.40;99.90
23579;DHT22;11967;50.852;4.400;2024-03-07T07:02:46;10.40;99.90
23579;DHT22;11967;50.852;4.400;2024-03-07T07:05:15;10.40;99.90
23579;DHT22;11967;50.852;4.400;2024-03-07T07:07:47;10.40;99.90
23579;DHT22;11967;50.852;4.400;2024-03-07T07:10:14;10.40;99.90
23579;DHT22;11967;50.852;4.400;2024-03-07T07:12:49;10.40;99.90
23579;DHT22;11967;50.852;4.400;2024-03-07T07:15:16;10.40;99.90
23579;DHT22;11967;50.852;4.400;2024-03-07T07:17:43;10.50;99.90
23579;DHT22;11967;50.852;4.400;2024-03-07T07:20:14;10.50;99.90
23579;DHT22;11967;50.852;4.400;2024-03-07T07:22:47;10.60;99.90
23579;DHT22;11967;50.852;4.400;2024-03-07T07:25:13;10.60;99.90
23579;DHT22;11967;50.852;4.400;2024-03-07T07:27:50;10.60;99.90
23579;DHT22;11967;50.852;4.400;2024-03-07T07:30:18;10.60;99.90
23579;DHT22;11967;50.852;4.400;2024-03-07T07:32:44;10.60;99.90
23579;DHT22;11967;50.852;4.400;2024-03-07T07:35:12;10.60;99.90
23579;DHT22;11967;50.852;4.400;2024-03-07T07:37:39;10.50;99.90
23579;DHT22;11967;50.852;4.400;2024-03-07T07:40:06;10.50;99.90
23579;DHT22;11967;50.852;4.400;2024-03-07T07:42:36;10.50;99.90
23579;DHT22;11967;50.852;4.400;2024-03-07T07:45:10;10.50;99.90
23579;DHT22;11967;50.852;4.400;2024-03-07T07:47:48;10.50;99.90
23579;DHT22;11967;50.852;4.400;2024-03-07T07:50:21;10.60;99.90
23579;DHT22;11967;50.852;4.400;2024-03-07T07:52:51;10.50;99.90
23579;DHT22;11967;50.852;4.400;2024-03-07T07:55:20;10.50;99.90
23579;DHT22;11967;50.852;4.400;2024-03-07T07:57:47;10.50;99.90
23579;DHT22;11967;50.852;4.400;2024-03-07T08:00:15;10.50;99.90
23579;DHT22;11967;50.852;4.400;2024-03-07T08:02:59;10.60;99.90
23579;DHT22;11967;50.852;4.400;2024-03-07T08:05:30;10.60;99.90
23579;DHT22;11967;50.852;4.400;2024-03-07T08:07:58;10.60;99.90
23579;DHT22;11967;50.852;4.400;2024-03-07T08:10:25;10.50;99.90
23579;DHT22;11967;50.852;4.400;2024-03-07T08:12:55;10.60;99.90
23579;DHT22;11967;50.852;4.400;2024-03-07T08:15:21;10.60;99.90
23579;DHT22;11967;50.852;4.400;2024-03-07T08:17:47;10.70;99.90
23579;DHT22;11967;50.852;4.400;2024-03-07T08:20:21;10.60;99.90
23579;DHT22;11967;50.852;4.400;2024-03-07T08:22:49;10.70;99.90
23579;DHT22;11967;50.852;4.400;2024-03-07T08:25:19;10.70;99.90
23579;DHT22;11967;50.852;4.400;2024-03-07T08:27:48;10.70;99.90
23579;DHT22;11967;50.852;4.400;2024-03-07T08:30:14;10.60;99.90
23579;DHT22;11967;50.852;4.400;2024-03-07T08:32:48;10.70;99.90
23579;DHT22;11967;50.852;4.400;2024-03-07T08:35:14;10.70;99.90
23579;DHT22;11967;50.852;4.400;2024-03-07T08:37:42;10.80;99.90
23579;DHT22;11967;50.852;4.400;2024-03-07T08:40:10;10.80;99.90
23579;DHT22;11967;50.852;4.400;2024-03-07T08:42:40;10.90;99.90
23579;DHT22;11967;50.852;4.400;2024-03-07T08:45:08;11.00;99.90
23579;DHT22;11967;50.852;4.400;2024-03-07T08:47:36;11.10;99.90
23579;DHT22;11967;50.852;4.400;2024-03-07T08:50:04;11.10;99.90
23579;DHT22;11967;50.852;4.400;2024-03-07T08:52:34;11.20;99.90
23579;DHT22;11967;50.852;4.400;2024-03-07T08:55:20;11.20;99.90
23579;DHT22;11967;50.852;4.400;2024-03-07T08:57:46;11.10;99.90
23579;DHT22;11967;50.852;4.400;2024-03-07T09:00:16;11.20;99.90
23579;DHT22;11967;50.852;4.400;2024-03-07T09:02:50;11.10;99.90
23579;DHT22;11967;50.852;4.400;2024-03-07T09:05:17;11.10;99.90
23579;DHT22;11967;50.852;4.400;2024-03-07T09:07:44;11.00;99.90
23579;DHT22;11967;50.852;4.400;2024-03-07T09:10:12;11.10;99.90
23579;DHT22;11967;50.852;4.400;2024-03-07T09:12:39;11.10;99.90
23579;DHT22;11967;50.852;4.400;2024-03-07T09:15:05;11.20;99.90
23579;DHT22;11967;50.852;4.400;2024-03-07T09:17:31;11.20;99.90
23579;DHT22;11967;50.852;4.400;2024-03-07T09:19:57;11.10;99.90
23579;DHT22;11967;50.852;4.400;2024-03-07T09:22:23;11.30;99.90
23579;DHT22;11967;50.852;4.400;2024-03-07T09:24:48;11.40;99.90
23579;DHT22;11967;50.852;4.400;2024-03-07T09:27:14;11.40;99.90
23579;DHT22;11967;50.852;4.400;2024-03-07T09:29:40;11.40;99.90
23579;DHT22;11967;50.852;4.400;2024-03-07T09:32:06;11.30;99.90
23579;DHT22;11967;50.852;4.400;2024-03-07T09:34:35;11.40;99.90
23579;DHT22;11967;50.852;4.400;2024-03-07T09:37:01;11.40;99.90
23579;DHT22;11967;50.852;4.400;2024-03-07T09:39:27;11.40;99.90
23579;DHT22;11967;50.852;4.400;2024-03-07T09:41:53;11.40;99.90
23579;DHT22;11967;50.852;4.400;2024-03-07T09:44:21;11.50;99.90
23579;DHT22;11967;50.852;4.400;2024-03-07T09:46:50;11.50;99.90
23579;DHT22;11967;50.852;4.400;2024-03-07T09:49:18;11.50;99.90
23579;DHT22;11967;50.852;4.400;2024-03-07T09:51:46;11.60;99.90
23579;DHT22;11967;50.852;4.400;2024-03-07T09:54:12;11.60;99.90
23579;DHT22;11967;50.852;4.400;2024-03-07T09:56:39;11.70;99.90
23579;DHT22;11967;50.852;4.400;2024-03-07T09:59:11;11.70;99.90
23579;DHT22;11967;50.852;4.400;2024-03-07T10:01:39;11.90;99.90
23579;DHT22;11967;50.852;4.400;2024-03-07T10:04:08;12.10;99.90
23579;DHT22;11967;50.852;4.400;2024-03-07T10:06:43;12.60;99.90
23579;DHT22;11967;50.852;4.400;2024-03-07T10:09:13;12.80;99.90
23579;DHT22;11967;50.852;4.400;2024-03-07T10:11:40;13.00;99.90
23579;DHT22;11967;50.852;4.400;2024-03-07T10:14:10;13.00;99.90
23579;DHT22;11967;50.852;4.400;2024-03-07T10:16:36;13.10;99.90
23579;DHT22;11967;50.852;4.400;2024-03-07T10:19:05;13.00;99.90
23579;DHT22;11967;50.852;4.400;2024-03-07T10:21:32;13.00;99.90
23579;DHT22;11967;50.852;4.400;2024-03-07T10:24:07;13.00;99.90
23579;DHT22;11967;50.852;4.400;2024-03-07T10:26:37;13.00;99.90
23579;DHT22;11967;50.852;4.400;2024-03-07T10:29:07;13.30;99.90
23579;DHT22;11967;50.852;4.400;2024-03-07T10:31:35;13.50;99.90
23579;DHT22;11967;50.852;4.400;2024-03-07T10:34:04;13.70;99.90
23579;DHT22;11967;50.852;4.400;2024-03-07T10:36:33;13.90;99.90
23579;DHT22;11967;50.852;4.400;2024-03-07T10:39:02;14.10;99.90
23579;DHT22;11967;50.852;4.400;2024-03-07T10:41:45;14.10;99.90
23579;DHT22;11967;50.852;4.400;2024-03-07T10:44:25;14.30;99.90
23579;DHT22;11967;50.852;4.400;2024-03-07T10:46:55;14.40;99.90
23579;DHT22;11967;50.852;4.400;2024-03-07T10:49:25;14.60;99.90
23579;DHT22;11967;50.852;4.400;2024-03-07T10:52:10;14.60;99.90
23579;DHT22;11967;50.852;4.400;2024-03-07T10:57:41;14.80;99.90
23579;DHT22;11967;50.852;4.400;2024-03-07T11:00:11;14.90;99.90
23579;DHT22;11967;50.852;4.400;2024-03-07T11:02:57;15.10;99.90
23579;DHT22;11967;50.852;4.400;2024-03-07T11:05:26;15.20;99.90
23579;DHT22;11967;50.852;4.400;2024-03-07T11:08:00;15.40;99.90
23579;DHT22;11967;50.852;4.400;2024-03-07T11:10:29;15.60;99.90
23579;DHT22;11967;50.852;4.400;2024-03-07T11:12:57;15.70;99.90
23579;DHT22;11967;50.852;4.400;2024-03-07T11:15:25;15.70;99.90
23579;DHT22;11967;50.852;4.400;2024-03-07T11:17:54;15.80;99.90
23579;DHT22;11967;50.852;4.400;2024-03-07T11:22:49;15.90;99.90
23579;DHT22;11967;50.852;4.400;2024-03-07T11:25:17;15.90;99.90
23579;DHT22;11967;50.852;4.400;2024-03-07T11:27:55;15.90;99.90
23579;DHT22;11967;50.852;4.400;2024-03-07T11:30:21;15.80;99.90
23579;DHT22;11967;50.852;4.400;2024-03-07T11:32:51;15.80;99.90
23579;DHT22;11967;50.852;4.400;2024-03-07T11:35:31;15.80;99.90
23579;DHT22;11967;50.852;4.400;2024-03-07T11:37:59;15.80;99.90
23579;DHT22;11967;50.852;4.400;2024-03-07T11:42:56;15.90;99.90
23579;DHT22;11967;50.852;4.400;2024-03-07T11:45:30;16.00;99.90
23579;DHT22;11967;50.852;4.400;2024-03-07T11:48:00;16.10;99.90
23579;DHT22;11967;50.852;4.400;2024-03-07T11:50:39;16.00;99.90
23579;DHT22;11967;50.852;4.400;2024-03-07T11:53:06;15.90;99.90
23579;DHT22;11967;50.852;4.400;2024-03-07T11:55:34;15.80;99.90
23579;DHT22;11967;50.852;4.400;2024-03-07T11:58:17;15.80;99.90
23579;DHT22;11967;50.852;4.400;2024-03-07T12:00:44;15.70;99.90
23579;DHT22;11967;50.852;4.400;2024-03-07T12:03:16;15.70;99.90
23579;DHT22;11967;50.852;4.400;2024-03-07T12:05:51;15.90;99.90
23579;DHT22;11967;50.852;4.400;2024-03-07T12:08:18;15.90;99.90
23579;DHT22;11967;50.852;4.400;2024-03-07T12:10:48;15.90;99.90
23579;DHT22;11967;50.852;4.400;2024-03-07T12:13:17;15.80;99.90
23579;DHT22;11967;50.852;4.400;2024-03-07T12:15:44;15.80;99.90
23579;DHT22;11967;50.852;4.400;2024-03-07T12:18:11;15.90;99.90
23579;DHT22;11967;50.852;4.400;2024-03-07T12:20:43;16.00;99.90
23579;DHT22;11967;50.852;4.400;2024-03-07T12:23:12;16.00;99.90
23579;DHT22;11967;50.852;4.400;2024-03-07T12:25:39;16.00;99.90
23579;DHT22;11967;50.852;4.400;2024-03-07T12:28:06;15.90;99.90
23579;DHT22;11967;50.852;4.400;2024-03-07T12:30:35;15.80;99.90
23579;DHT22;11967;50.852;4.400;2024-03-07T12:33:03;15.80;99.90
23579;DHT22;11967;50.852;4.400;2024-03-07T12:35:36;15.70;99.90
23579;DHT22;11967;50.852;4.400;2024-03-07T12:38:03;15.70;99.90
23579;DHT22;11967;50.852;4.400;2024-03-07T12:40:29;15.70;99.90
23579;DHT22;11967;50.852;4.400;2024-03-07T12:42:59;15.80;99.90
23579;DHT22;11967;50.852;4.400;2024-03-07T12:45:28;15.80;99.90
23579;DHT22;11967;50.852;4.400;2024-03-07T12:47:54;15.70;99.90
23579;DHT22;11967;50.852;4.400;2024-03-07T12:50:21;15.70;99.90
23579;DHT22;11967;50.852;4.400;2024-03-07T12:52:48;15.50;99.90
23579;DHT22;11967;50.852;4.400;2024-03-07T12:55:17;15.40;99.90
23579;DHT22;11967;50.852;4.400;2024-03-07T12:57:49;15.40;99.90
23579;DHT22;11967;50.852;4.400;2024-03-07T13:00:18;15.50;99.90
23579;DHT22;11967;50.852;4.400;2024-03-07T13:02:50;15.70;99.90
23579;DHT22;11967;50.852;4.400;2024-03-07T13:05:16;15.80;99.90
23579;DHT22;11967;50.852;4.400;2024-03-07T13:07:48;15.70;99.90
23579;DHT22;11967;50.852;4.400;2024-03-07T13:10:16;15.70;99.90
23579;DHT22;11967;50.852;4.400;2024-03-07T13:12:44;15.70;99.90
23579;DHT22;11967;50.852;4.400;2024-03-07T13:15:17;15.60;99.90
23579;DHT22;11967;50.852;4.400;2024-03-07T13:17:42;15.60;99.90
23579;DHT22;11967;50.852;4.400;2024-03-07T13:20:12;15.60;99.90
23579;DHT22;11967;50.852;4.400;2024-03-07T13:22:44;15.60;99.90
23579;DHT22;11967;50.852;4.400;2024-03-07T13:25:30;15.60;99.90
23579;DHT22;11967;50.852;4.400;2024-03-07T13:30:29;15.50;99.90
23579;DHT22;11967;50.852;4.400;2024-03-07T13:32:59;15.60;99.90
23579;DHT22;11967;50.852;4.400;2024-03-07T13:35:25;15.50;99.90
23579;DHT22;11967;50.852;4.400;2024-03-07T13:37:52;15.50;99.90
23579;DHT22;11967;50.852;4.400;2024-03-07T13:40:22;15.50;99.90
23579;DHT22;11967;50.852;4.400;2024-03-07T13:42:51;15.60;99.90
23579;DHT22;11967;50.852;4.400;2024-03-07T13:45:21;15.60;99.90
23579;DHT22;11967;50.852;4.400;2024-03-07T13:47:48;15.60;99.90
23579;DHT22;11967;50.852;4.400;2024-03-07T13:50:16;15.60;99.90
23579;DHT22;11967;50.852;4.400;2024-03-07T13:52:41;15.60;99.90
23579;DHT22;11967;50.852;4.400;2024-03-07T13:55:21;15.50;99.90
23579;DHT22;11967;50.852;4.400;2024-03-07T13:57:52;15.40;99.90
23579;DHT22;11967;50.852;4.400;2024-03-07T14:00:43;15.50;99.90
23579;DHT22;11967;50.852;4.400;2024-03-07T14:05:58;15.60;99.90
23579;DHT22;11967;50.852;4.400;2024-03-07T14:09:03;15.70;99.90
23579;DHT22;11967;50.852;4.400;2024-03-07T14:12:15;15.70;99.90
23579;DHT22;11967;50.852;4.400;2024-03-07T14:15:31;15.80;99.90
23579;DHT22;11967;50.852;4.400;2024-03-07T14:27:35;15.70;99.90
23579;DHT22;11967;50.852;4.400;2024-03-07T14:30:24;15.70;99.90
23579;DHT22;11967;50.852;4.400;2024-03-07T14:32:53;15.80;99.90
23579;DHT22;11967;50.852;4.400;2024-03-07T14:35:28;15.90;99.90
23579;DHT22;11967;50.852;4.400;2024-03-07T14:38:25;16.00;99.90
23579;DHT22;11967;50.852;4.400;2024-03-07T14:40:53;16.00;99.90
23579;DHT22;11967;50.852;4.400;2024-03-07T14:43:20;16.00;99.90
23579;DHT22;11967;50.852;4.400;2024-03-07T14:45:46;16.00;99.90
23579;DHT22;11967;50.852;4.400;2024-03-07T14:48:14;16.10;99.90
23579;DHT22;11967;50.852;4.400;2024-03-07T14:50:43;16.00;99.90
23579;DHT22;11967;50.852;4.400;2024-03-07T14:53:11;16.10;99.90
23579;DHT22;11967;50.852;4.400;2024-03-07T14:55:40;16.10;99.90
23579;DHT22;11967;50.852;4.400;2024-03-07T14:58:06;16.00;99.90
23579;DHT22;11967;50.852;4.400;2024-03-07T15:00:37;15.90;99.90
23579;DHT22;11967;50.852;4.400;2024-03-07T15:03:11;15.80;99.90
23579;DHT22;11967;50.852;4.400;2024-03-07T15:05:43;15.70;99.90
23579;DHT22;11967;50.852;4.400;2024-03-07T15:08:18;15.70;99.90
23579;DHT22;11967;50.852;4.400;2024-03-07T15:10:48;15.70;99.90
23579;DHT22;11967;50.852;4.400;2024-03-07T15:13:16;15.70;99.90
23579;DHT22;11967;50.852;4.400;2024-03-07T15:15:42;15.70;99.90
23579;DHT22;11967;50.852;4.400;2024-03-07T15:18:10;15.80;99.90
23579;DHT22;11967;50.852;4.400;2024-03-07T15:20:36;15.80;99.90
23579;DHT22;11967;50.852;4.400;2024-03-07T15:23:02;15.70;99.90
23579;DHT22;11967;50.852;4.400;2024-03-07T15:25:29;15.60;99.90
23579;DHT22;11967;50.852;4.400;2024-03-07T15:27:57;15.60;99.90
23579;DHT22;11967;50.852;4.400;2024-03-07T15:30:24;15.60;99.90
23579;DHT22;11967;50.852;4.400;2024-03-07T15:32:51;15.60;99.90
23579;DHT22;11967;50.852;4.400;2024-03-07T15:35:17;15.60;99.90
23579;DHT22;11967;50.852;4.400;2024-03-07T15:37:49;15.70;99.90
23579;DHT22;11967;50.852;4.400;2024-03-07T15:40:16;15.90;99.90
23579;DHT22;11967;50.852;4.400;2024-03-07T15:42:44;16.00;99.90
23579;DHT22;11967;50.852;4.400;2024-03-07T15:45:21;16.00;99.90
23579;DHT22;11967;50.852;4.400;2024-03-07T15:47:52;16.10;99.90
23579;DHT22;11967;50.852;4.400;2024-03-07T15:50:19;16.00;99.90
23579;DHT22;11967;50.852;4.400;2024-03-07T15:52:46;16.10;99.90
23579;DHT22;11967;50.852;4.400;2024-03-07T15:55:12;16.20;99.90
23579;DHT22;11967;50.852;4.400;2024-03-07T15:57:45;16.10;99.90
23579;DHT22;11967;50.852;4.400;2024-03-07T16:00:21;16.10;99.90
23579;DHT22;11967;50.852;4.400;2024-03-07T16:05:18;16.10;99.90
23579;DHT22;11967;50.852;4.400;2024-03-07T16:07:44;16.00;99.90